Time;durP1;ratioP1;P1;durP2;ratioP2;P2;SDS_P1;SDS_P2;PMS_P1;PMS_P2;Temp;Humidity;BMP_temperature;BMP_pressure;BME280_temperature;BME280_humidity;BME280_pressure;Samples;Min_cycle;Max_cycle;Signal;HPM_P1;HPM_P2
2022/10/11 00:00:43;;;;;;;3.88;1.25;;;9.80;69.90;;;;;;5137598;27;20485;-67
2022/10/11 00:03:08;;;;;;;7.32;1.92;;;9.80;69.90;;;;;;5135041;27;20039;-67
2022/10/11 00:05:34;;;;;;;6.65;1.85;;;9.80;70.00;;;;;;5133850;27;20042;-66
2022/10/11 00:08:00;;;;;;;4.13;1.42;;;9.80;70.00;;;;;;5134185;27;20035;-67
2022/10/11 00:10:26;;;;;;;4.95;1.13;;;9.80;70.50;;;;;;5116607;27;20043;-67
2022/10/11 00:12:52;;;;;;;4.63;1.30;;;9.80;70.10;;;;;;5133554;27;20138;-66
2022/10/11 00:15:20;;;;;;;4.43;1.17;;;9.80;70.10;;;;;;5134026;27;20114;-67
2022/10/11 00:17:46;;;;;;;5.70;1.85;;;9.70;70.10;;;;;;5133860;27;20031;-66
2022/10/11 00:20:12;;;;;;;6.32;1.58;;;9.80;70.10;;;;;;5133891;27;20043;-66
2022/10/11 00:22:39;;;;;;;3.97;1.20;;;9.80;70.10;;;;;;5133690;27;20039;-67
2022/10/11 00:25:07;;;;;;;5.38;1.63;;;9.70;70.00;;;;;;5131101;27;20080;-67
2022/10/11 00:27:33;;;;;;;7.45;1.80;;;9.70;70.00;;;;;;5149375;27;20062;-67
2022/10/11 00:29:59;;;;;;;6.10;1.75;;;9.70;70.00;;;;;;5133326;27;20070;-67
2022/10/11 00:32:25;;;;;;;6.70;2.00;;;9.70;70.00;;;;;;5133157;27;20079;-66
2022/10/11 00:34:51;;;;;;;4.78;1.40;;;9.70;70.00;;;;;;5133438;27;20386;-67
2022/10/11 00:37:17;;;;;;;6.38;1.45;;;9.70;69.90;;;;;;5133471;27;20031;-67
2022/10/11 00:39:43;;;;;;;5.72;1.52;;;9.70;69.90;;;;;;5133545;27;20042;-67
2022/10/11 00:42:16;;;;;;;4.70;1.38;;;9.70;69.80;;;;;;5133469;27;20039;-67
2022/10/11 00:44:45;;;;;;;5.75;1.60;;;9.70;69.90;;;;;;5133035;27;20093;-67
2022/10/11 00:47:15;;;;;;;6.30;1.33;;;9.70;69.90;;;;;;5115971;27;20079;-67
2022/10/11 00:49:45;;;;;;;5.50;1.05;;;9.60;69.80;;;;;;5132355;27;20138;-67
2022/10/11 00:52:32;;;;;;;4.78;1.98;;;9.70;69.80;;;;;;5132940;27;20051;-66
2022/10/11 00:55:02;;;;;;;6.70;1.73;;;9.70;69.80;;;;;;5132162;27;20067;-67
2022/10/11 00:57:32;;;;;;;7.30;1.38;;;9.60;69.70;;;;;;5132787;27;20382;-67
2022/10/11 00:59:59;;;;;;;3.67;1.75;;;9.60;69.70;;;;;;5132811;27;20031;-67
2022/10/11 01:02:25;;;;;;;5.57;1.33;;;9.60;69.70;;;;;;5133252;27;20067;-67
2022/10/11 01:04:51;;;;;;;4.40;1.38;;;9.60;69.70;;;;;;5132713;27;20750;-67
2022/10/11 01:07:19;;;;;;;8.77;1.90;;;9.60;69.80;;;;;;5130309;27;20066;-67
2022/10/11 01:09:44;;;;;;;4.75;1.30;;;9.60;69.80;;;;;;5132505;27;20047;-66
2022/10/11 01:12:22;;;;;;;5.82;1.70;;;9.60;69.70;;;;;;5115808;27;20058;-67
2022/10/11 01:15:14;;;;;;;6.40;1.10;;;9.60;69.80;;;;;;5131589;27;20035;-66
2022/10/11 01:17:50;;;;;;;3.35;0.90;;;9.60;69.80;;;;;;5132584;27;20063;-67
2022/10/11 01:20:56;;;;;;;6.25;1.58;;;9.60;69.80;;;;;;5132522;27;20047;-67
2022/10/11 01:23:53;;;;;;;3.92;1.08;;;9.60;69.80;;;;;;5131854;27;20039;-67
2022/10/11 01:26:33;;;;;;;5.68;1.30;;;9.60;69.70;;;;;;5130581;27;20095;-67
2022/10/11 01:29:20;;;;;;;6.20;1.48;;;9.50;69.70;;;;;;5130248;27;20031;-67
2022/10/11 01:31:57;;;;;;;5.55;1.25;;;9.50;69.70;;;;;;5131262;27;20067;-68
2022/10/11 01:34:37;;;;;;;4.28;1.33;;;9.50;69.70;;;;;;5132354;27;20118;-66
2022/10/11 01:37:08;;;;;;;6.35;1.35;;;9.50;69.80;;;;;;5131859;27;20047;-67
2022/10/11 01:39:41;;;;;;;4.15;1.40;;;9.50;69.80;;;;;;5131998;27;20118;-67
2022/10/11 01:42:11;;;;;;;3.00;1.35;;;9.50;69.80;;;;;;5131976;27;20031;-67
2022/10/11 01:44:38;;;;;;;4.20;1.20;;;9.50;69.80;;;;;;5132219;27;20466;-67
2022/10/11 01:47:04;;;;;;;6.30;1.30;;;9.50;69.80;;;;;;5131786;27;20045;-66
2022/10/11 01:49:30;;;;;;;3.90;1.10;;;9.50;69.90;;;;;;5131950;27;20035;-67
2022/10/11 01:52:02;;;;;;;5.32;1.30;;;9.40;69.80;;;;;;5132070;27;20092;-67
2022/10/11 01:54:46;;;;;;;6.28;2.03;;;9.50;69.90;;;;;;5131589;27;20042;-67
2022/10/11 01:57:43;;;;;;;5.93;1.20;;;9.50;69.70;;;;;;5131452;27;20505;-67
2022/10/11 02:00:13;;;;;;;4.15;1.67;;;9.40;69.70;;;;;;5118692;27;20054;-67
2022/10/11 02:03:03;;;;;;;4.85;1.48;;;9.40;69.70;;;;;;5131459;27;20050;-66
2022/10/11 02:05:39;;;;;;;3.65;1.10;;;9.40;69.70;;;;;;5129733;27;20367;-67
2022/10/11 02:08:20;;;;;;;4.53;1.23;;;9.40;69.80;;;;;;5129430;27;20043;-67
2022/10/11 02:10:59;;;;;;;5.15;1.35;;;9.40;69.80;;;;;;5131043;27;20035;-67
2022/10/11 02:13:38;;;;;;;6.00;1.20;;;9.40;69.80;;;;;;5131558;27;20091;-66
2022/10/11 02:16:11;;;;;;;5.32;1.60;;;9.40;69.80;;;;;;5127858;27;20035;-67
2022/10/11 02:18:42;;;;;;;5.22;1.20;;;9.30;69.70;;;;;;5130108;27;20091;-67
2022/10/11 02:21:12;;;;;;;3.08;1.20;;;9.30;69.70;;;;;;5131570;27;20585;-67
2022/10/11 02:23:44;;;;;;;4.82;1.05;;;9.40;69.80;;;;;;5138677;27;20043;-67
2022/10/11 02:26:11;;;;;;;5.13;1.33;;;9.30;69.70;;;;;;5131296;27;20496;-67
2022/10/11 02:28:40;;;;;;;4.03;1.17;;;9.30;69.80;;;;;;5131361;27;20539;-67
2022/10/11 02:31:08;;;;;;;7.47;1.63;;;9.30;69.80;;;;;;5131153;27;20054;-67
2022/10/11 02:33:57;;;;;;;6.63;1.17;;;9.30;70.20;;;;;;5114301;27;20047;-67
2022/10/11 02:36:30;;;;;;;3.38;1.25;;;9.30;69.70;;;;;;5130965;27;20121;-67
2022/10/11 02:39:03;;;;;;;3.97;1.10;;;9.30;69.70;;;;;;5131259;27;20477;-67
2022/10/11 02:41:39;;;;;;;4.90;1.27;;;9.30;69.80;;;;;;5125121;27;20035;-67
2022/10/11 02:44:13;;;;;;;5.30;1.33;;;9.30;69.80;;;;;;5131535;27;20035;-67
2022/10/11 02:46:41;;;;;;;3.70;1.08;;;9.20;69.70;;;;;;5112033;28;20077;-67
2022/10/11 02:49:08;;;;;;;5.65;1.67;;;9.20;69.70;;;;;;5131276;27;20043;-67
2022/10/11 02:51:34;;;;;;;2.58;0.82;;;9.20;69.70;;;;;;5113554;27;20055;-67
2022/10/11 02:54:00;;;;;;;3.03;0.98;;;9.20;69.70;;;;;;5113966;28;20115;-67
2022/10/11 02:56:26;;;;;;;5.82;1.23;;;9.20;69.70;;;;;;5113657;28;20504;-67
2022/10/11 02:58:51;;;;;;;3.72;1.17;;;9.20;69.70;;;;;;5131042;27;20032;-67
2022/10/11 03:01:17;;;;;;;6.65;1.42;;;9.20;70.10;;;;;;5114297;28;20031;-67
2022/10/11 03:03:43;;;;;;;3.10;0.85;;;9.20;69.70;;;;;;5130837;27;20043;-67
2022/10/11 03:06:08;;;;;;;3.22;0.93;;;9.20;69.70;;;;;;5131255;27;20047;-67
2022/10/11 03:08:34;;;;;;;5.85;1.63;;;9.20;69.70;;;;;;5130513;27;20039;-67
2022/10/11 03:11:00;;;;;;;4.72;1.33;;;9.20;69.70;;;;;;5130830;27;20372;-67
2022/10/11 03:13:26;;;;;;;5.78;1.48;;;9.10;69.70;;;;;;5113127;28;20039;-67
2022/10/11 03:15:53;;;;;;;4.85;1.27;;;9.20;69.80;;;;;;5130920;28;20088;-67
2022/10/11 03:18:18;;;;;;;5.47;1.02;;;9.10;69.70;;;;;;5128376;28;20039;-67
2022/10/11 03:20:44;;;;;;;5.00;1.23;;;9.10;69.70;;;;;;5130090;27;20054;-67
2022/10/11 03:23:10;;;;;;;4.18;1.40;;;9.10;69.70;;;;;;5130926;27;20039;-67
2022/10/11 03:25:36;;;;;;;5.25;1.00;;;9.10;69.60;;;;;;5130431;27;20161;-67
2022/10/11 03:28:02;;;;;;;3.22;1.05;;;9.10;69.60;;;;;;5130464;28;20070;-67
2022/10/11 03:30:28;;;;;;;4.90;1.73;;;9.10;69.60;;;;;;5130541;27;20435;-67
2022/10/11 03:32:53;;;;;;;4.82;1.20;;;9.10;69.60;;;;;;5130928;28;20039;-67
2022/10/11 03:35:19;;;;;;;5.82;1.48;;;9.10;69.60;;;;;;5130523;28;20046;-67
2022/10/11 03:37:45;;;;;;;4.57;1.13;;;9.10;69.50;;;;;;5131151;27;20089;-67
2022/10/11 03:40:11;;;;;;;4.93;1.20;;;9.10;69.50;;;;;;5134526;27;20035;-67
2022/10/11 03:42:38;;;;;;;4.43;1.23;;;9.10;69.50;;;;;;5134192;27;20539;-67
2022/10/11 03:45:07;;;;;;;5.45;0.95;;;9.00;69.50;;;;;;5134548;27;20478;-67
2022/10/11 03:47:37;;;;;;;3.45;0.93;;;9.10;69.50;;;;;;5116899;27;20478;-67
2022/10/11 03:50:04;;;;;;;6.03;1.20;;;9.10;69.60;;;;;;5134539;27;20047;-67
2022/10/11 03:52:30;;;;;;;6.75;1.20;;;9.10;69.50;;;;;;5134363;27;20043;-67
2022/10/11 03:54:55;;;;;;;5.68;1.10;;;9.00;69.40;;;;;;5118759;27;20039;-67
2022/10/11 03:57:21;;;;;;;3.17;0.95;;;9.00;69.40;;;;;;5117461;27;20122;-67
2022/10/11 03:59:47;;;;;;;2.70;0.80;;;9.00;69.40;;;;;;5135448;27;20121;-67
2022/10/11 04:02:13;;;;;;;2.78;0.90;;;9.00;69.40;;;;;;5118202;27;20035;-66
2022/10/11 04:04:39;;;;;;;4.45;1.08;;;9.00;69.30;;;;;;5134761;27;20077;-67
2022/10/11 04:07:04;;;;;;;2.97;0.90;;;9.00;69.20;;;;;;5135332;27;20047;-67
2022/10/11 04:09:30;;;;;;;4.85;0.82;;;9.00;69.10;;;;;;5117716;27;20071;-67
2022/10/11 04:11:56;;;;;;;3.80;1.05;;;8.90;69.50;;;;;;5117962;27;20497;-67
2022/10/11 04:14:21;;;;;;;3.08;0.90;;;8.90;68.90;;;;;;5134780;27;20434;-67
2022/10/11 04:16:47;;;;;;;4.97;1.27;;;9.00;69.00;;;;;;5118360;27;20031;-67
2022/10/11 04:19:13;;;;;;;3.55;1.30;;;8.90;68.90;;;;;;5134871;27;20087;-67
2022/10/11 04:21:39;;;;;;;3.13;0.75;;;8.90;68.90;;;;;;5117789;27;20115;-67
2022/10/11 04:24:04;;;;;;;2.03;0.77;;;8.90;69.00;;;;;;5134446;27;20110;-67
2022/10/11 04:26:30;;;;;;;2.78;0.77;;;8.90;68.90;;;;;;5134923;27;20031;-67
2022/10/11 04:28:56;;;;;;;4.40;1.00;;;8.80;68.90;;;;;;5117521;27;20035;-67
2022/10/11 04:31:22;;;;;;;3.20;1.20;;;8.80;68.90;;;;;;5135107;27;20126;-67
2022/10/11 04:33:48;;;;;;;3.53;0.70;;;8.80;68.90;;;;;;5134166;27;20042;-67
2022/10/11 04:36:14;;;;;;;3.85;1.30;;;8.80;68.90;;;;;;5134864;27;20036;-67
2022/10/11 04:38:40;;;;;;;2.58;0.73;;;8.80;68.90;;;;;;5134639;27;20037;-67
2022/10/11 04:41:11;;;;;;;3.38;1.02;;;8.80;68.90;;;;;;5135126;27;20088;-67
2022/10/11 04:43:37;;;;;;;4.97;1.05;;;8.80;69.00;;;;;;5133466;27;20063;-67
2022/10/11 04:46:04;;;;;;;2.20;0.75;;;8.80;68.90;;;;;;5134681;27;20046;-67
2022/10/11 04:48:30;;;;;;;3.33;1.20;;;8.80;68.90;;;;;;5117111;27;20084;-68
2022/10/11 04:50:55;;;;;;;3.03;0.80;;;8.70;68.80;;;;;;5134315;27;20096;-67
2022/10/11 04:53:21;;;;;;;2.65;0.70;;;8.70;68.80;;;;;;5133478;27;20038;-66
2022/10/11 04:56:01;;;;;;;2.33;0.60;;;8.70;68.80;;;;;;5134232;27;20031;-66
2022/10/11 04:58:28;;;;;;;4.03;1.00;;;8.70;68.90;;;;;;5134507;27;20122;-67
2022/10/11 05:00:54;;;;;;;4.07;1.00;;;8.70;68.90;;;;;;5134051;27;20076;-66
2022/10/11 05:03:19;;;;;;;2.75;1.02;;;8.70;68.90;;;;;;5133590;27;20546;-66
2022/10/11 05:05:45;;;;;;;6.03;1.38;;;8.70;68.90;;;;;;5117167;27;20043;-66
2022/10/11 05:08:11;;;;;;;5.78;1.40;;;8.70;68.80;;;;;;5134383;27;20031;-66
2022/10/11 05:10:37;;;;;;;6.80;1.67;;;8.70;68.80;;;;;;5133655;27;20072;-66
2022/10/11 05:13:03;;;;;;;4.03;1.52;;;8.70;68.80;;;;;;5133830;27;20078;-65
2022/10/11 05:15:28;;;;;;;3.13;1.23;;;8.70;68.90;;;;;;5133769;27;20039;-66
2022/10/11 05:17:54;;;;;;;3.88;1.45;;;8.70;68.90;;;;;;5134181;27;20042;-66
2022/10/11 05:20:20;;;;;;;4.90;1.50;;;8.70;68.90;;;;;;5133783;27;20050;-65
2022/10/11 05:22:45;;;;;;;4.38;1.95;;;8.70;68.90;;;;;;5133869;27;20521;-66
2022/10/11 05:25:11;;;;;;;5.65;1.70;;;8.60;68.80;;;;;;5133599;27;20063;-66
2022/10/11 05:27:37;;;;;;;4.60;1.67;;;8.60;68.80;;;;;;5116379;27;20047;-65
2022/10/11 05:30:03;;;;;;;4.47;1.92;;;8.60;68.80;;;;;;5133575;27;20039;-65
2022/10/11 05:32:29;;;;;;;3.75;1.45;;;8.60;68.80;;;;;;5133761;27;20159;-65
2022/10/11 05:34:55;;;;;;;5.50;2.38;;;8.60;68.90;;;;;;5133910;27;20088;-66
2022/10/11 05:37:21;;;;;;;4.78;1.73;;;8.60;68.90;;;;;;5133991;27;20391;-65
2022/10/11 05:39:46;;;;;;;4.93;1.77;;;8.60;69.00;;;;;;5133145;27;20092;-65
2022/10/11 05:42:12;;;;;;;4.78;1.90;;;8.60;69.10;;;;;;5133250;27;20073;-66
2022/10/11 05:44:38;;;;;;;6.22;2.08;;;8.60;69.10;;;;;;5128879;27;20039;-66
2022/10/11 05:47:04;;;;;;;3.92;1.65;;;8.60;69.10;;;;;;5133511;27;20039;-66
2022/10/11 05:49:29;;;;;;;4.57;1.80;;;8.60;69.10;;;;;;5132753;27;20067;-66
2022/10/11 05:51:55;;;;;;;4.30;2.03;;;8.60;69.10;;;;;;5133542;27;20039;-65
2022/10/11 05:54:21;;;;;;;4.35;1.80;;;8.60;69.10;;;;;;5133420;27;20482;-65
2022/10/11 05:56:47;;;;;;;3.45;1.58;;;8.50;69.00;;;;;;5116083;27;20039;-65
2022/10/11 05:59:13;;;;;;;5.82;1.90;;;8.50;69.00;;;;;;5132914;27;20114;-65
2022/10/11 06:01:39;;;;;;;3.45;1.67;;;8.50;69.00;;;;;;5146641;27;20444;-65
2022/10/11 06:04:05;;;;;;;3.88;1.98;;;8.60;69.00;;;;;;5132794;27;20415;-66
2022/10/11 06:06:31;;;;;;;5.15;1.90;;;8.50;68.80;;;;;;5115663;27;20031;-65
2022/10/11 06:08:56;;;;;;;3.13;1.20;;;8.60;68.80;;;;;;5133350;27;20114;-65
2022/10/11 06:11:26;;;;;;;4.00;1.80;;;8.50;68.60;;;;;;5132898;27;20043;-65
2022/10/11 06:13:59;;;;;;;2.08;0.52;;;8.50;68.50;;;;;;5132627;27;20031;-65
2022/10/11 06:16:26;;;;;;;1.13;0.65;;;8.50;68.10;;;;;;5132227;27;20027;-66
2022/10/11 06:18:53;;;;;;;2.50;1.00;;;8.50;67.80;;;;;;5133223;27;20481;-66
2022/10/11 06:21:19;;;;;;;2.92;1.40;;;8.50;67.50;;;;;;5132639;27;20051;-65
2022/10/11 06:23:48;;;;;;;3.72;1.65;;;8.40;67.60;;;;;;5132322;27;20386;-65
2022/10/11 06:26:14;;;;;;;3.15;1.27;;;8.40;67.70;;;;;;5132525;27;20042;-65
2022/10/11 06:28:40;;;;;;;2.75;1.33;;;8.40;67.80;;;;;;5132587;27;20452;-65
2022/10/11 06:31:06;;;;;;;2.85;1.20;;;8.40;67.90;;;;;;5132436;27;20039;-65
2022/10/11 06:33:32;;;;;;;3.78;1.08;;;8.40;68.00;;;;;;5132168;27;20062;-65
2022/10/11 06:36:01;;;;;;;3.28;0.90;;;8.40;68.10;;;;;;5115096;27;20118;-65
2022/10/11 06:38:27;;;;;;;2.92;1.33;;;8.40;68.20;;;;;;5132513;27;20049;-65
2022/10/11 06:40:53;;;;;;;3.13;1.52;;;8.40;68.30;;;;;;5132820;27;20035;-65
2022/10/11 06:43:19;;;;;;;3.42;1.30;;;8.40;68.30;;;;;;5132256;27;20084;-65
2022/10/11 06:45:44;;;;;;;1.55;0.60;;;8.40;68.30;;;;;;5132448;27;20103;-65
2022/10/11 06:48:10;;;;;;;3.97;1.00;;;8.40;68.30;;;;;;5132533;27;20043;-66
2022/10/11 06:50:37;;;;;;;2.58;0.98;;;8.30;68.20;;;;;;5132281;27;20061;-65
2022/10/11 06:53:03;;;;;;;4.05;0.90;;;8.40;68.20;;;;;;5132352;27;20039;-65
2022/10/11 06:55:30;;;;;;;3.25;1.10;;;8.40;68.20;;;;;;5132665;27;20494;-65
2022/10/11 06:57:56;;;;;;;2.50;1.10;;;8.30;68.30;;;;;;5132382;27;20042;-65
2022/10/11 07:00:22;;;;;;;2.22;0.70;;;8.30;68.50;;;;;;5134033;27;20043;-65
2022/10/11 07:02:48;;;;;;;2.90;1.10;;;8.40;69.00;;;;;;5132097;28;20042;-65
2022/10/11 07:05:14;;;;;;;2.75;0.85;;;8.40;68.70;;;;;;5132299;27;20050;-65
2022/10/11 07:07:40;;;;;;;3.60;1.13;;;8.40;68.90;;;;;;5115110;28;20043;-65
2022/10/11 07:10:06;;;;;;;3.80;0.90;;;8.40;69.00;;;;;;5132441;28;20043;-65
2022/10/11 07:12:32;;;;;;;2.50;1.08;;;8.40;69.10;;;;;;5132829;27;20027;-65
2022/10/11 07:14:57;;;;;;;4.30;1.23;;;8.40;69.30;;;;;;5136220;27;20051;-65
2022/10/11 07:17:24;;;;;;;4.57;1.42;;;8.50;69.40;;;;;;5136348;27;20039;-65
2022/10/11 07:19:50;;;;;;;4.57;1.17;;;8.50;69.60;;;;;;5136507;27;20077;-65
2022/10/11 07:22:16;;;;;;;3.55;1.00;;;8.60;69.70;;;;;;5119030;27;20213;-65
2022/10/11 07:24:42;;;;;;;2.70;0.88;;;8.50;69.80;;;;;;5136042;27;20039;-65
2022/10/11 07:27:07;;;;;;;4.28;1.05;;;8.60;70.00;;;;;;5135786;27;20050;-65
2022/10/11 07:29:33;;;;;;;4.65;1.70;;;8.50;69.90;;;;;;5118902;27;20375;-65
2022/10/11 07:31:59;;;;;;;4.45;1.10;;;8.60;70.00;;;;;;5118856;27;20110;-65
2022/10/11 07:34:24;;;;;;;4.82;1.73;;;8.60;70.10;;;;;;5136278;27;20114;-66
2022/10/11 07:36:50;;;;;;;4.45;1.60;;;8.70;70.20;;;;;;5135950;27;20490;-65
2022/10/11 07:39:16;;;;;;;3.97;1.75;;;8.70;70.40;;;;;;5136021;27;20049;-65
2022/10/11 07:41:41;;;;;;;4.82;1.58;;;8.70;70.50;;;;;;5135729;27;20043;-66
2022/10/11 07:44:07;;;;;;;7.35;2.10;;;8.70;70.70;;;;;;5118569;27;20114;-65
2022/10/11 07:46:33;;;;;;;8.48;2.20;;;8.80;71.00;;;;;;5135742;27;20080;-65
2022/10/11 07:48:59;;;;;;;4.47;1.60;;;8.80;71.40;;;;;;5135597;27;20051;-65
2022/10/11 07:51:25;;;;;;;9.07;2.47;;;8.80;71.60;;;;;;5135874;27;20123;-65
2022/10/11 07:53:54;;;;;;;9.35;2.83;;;8.90;72.10;;;;;;5135578;27;20431;-66
2022/10/11 07:56:25;;;;;;;6.07;2.20;;;9.00;72.90;;;;;;5135972;27;20443;-66
2022/10/11 07:58:53;;;;;;;9.80;2.50;;;9.10;73.90;;;;;;5118442;27;20524;-66
2022/10/11 08:01:19;;;;;;;7.50;2.20;;;9.20;74.60;;;;;;5135735;27;20566;-66
2022/10/11 08:03:45;;;;;;;9.68;2.30;;;9.50;75.10;;;;;;5135306;27;20046;-66
2022/10/11 08:06:14;;;;;;;8.38;2.47;;;9.70;75.40;;;;;;5135601;27;20147;-66
2022/10/11 08:08:39;;;;;;;8.65;3.00;;;10.10;75.50;;;;;;5118131;27;20039;-66
2022/10/11 08:11:06;;;;;;;9.18;2.75;;;10.40;75.10;;;;;;5135391;27;20103;-66
2022/10/11 08:13:31;;;;;;;9.52;2.80;;;10.70;74.60;;;;;;5134996;27;20490;-66
2022/10/11 08:15:57;;;;;;;8.98;2.50;;;11.00;74.30;;;;;;5135243;27;20118;-66
2022/10/11 08:18:23;;;;;;;6.47;2.15;;;11.30;73.70;;;;;;5135340;27;20070;-66
2022/10/11 08:20:49;;;;;;;8.02;2.65;;;11.60;73.10;;;;;;5135239;27;20494;-66
2022/10/11 08:23:16;;;;;;;8.57;2.45;;;11.90;72.40;;;;;;5134518;27;20105;-66
2022/10/11 08:25:44;;;;;;;11.10;2.97;;;12.30;71.60;;;;;;5117317;27;20050;-66
2022/10/11 08:28:16;;;;;;;10.93;2.83;;;12.60;70.60;;;;;;5117823;27;20035;-66
2022/10/11 08:30:49;;;;;;;8.68;2.40;;;12.90;69.80;;;;;;5135072;27;20099;-66
2022/10/11 08:33:16;;;;;;;10.60;2.40;;;13.20;68.60;;;;;;5134505;27;20038;-71
2022/10/11 08:35:42;;;;;;;9.95;3.05;;;13.40;68.10;;;;;;5117888;27;20039;-71
2022/10/11 08:38:07;;;;;;;9.88;3.03;;;13.60;67.30;;;;;;5117655;27;20031;-71
2022/10/11 08:40:33;;;;;;;7.97;1.90;;;13.90;67.00;;;;;;5134869;27;20071;-71
2022/10/11 08:43:07;;;;;;;11.75;3.20;;;14.10;66.20;;;;;;5134619;27;20031;-71
2022/10/11 08:45:45;;;;;;;10.02;2.63;;;14.20;65.50;;;;;;5134648;27;20038;-71
2022/10/11 08:48:31;;;;;;;10.18;3.10;;;14.50;64.80;;;;;;5134400;27;20085;-71
2022/10/11 08:50:58;;;;;;;12.40;2.90;;;14.70;63.90;;;;;;5135783;27;20104;-71
2022/10/11 08:53:56;;;;;;;9.95;2.90;;;14.90;63.60;;;;;;5134034;27;20047;-72
2022/10/11 08:56:24;;;;;;;10.85;2.97;;;15.00;62.70;;;;;;5089862;27;20039;-71
2022/10/11 08:59:03;;;;;;;7.95;2.40;;;15.20;62.70;;;;;;5134366;27;20100;-71
2022/10/11 09:01:30;;;;;;;9.60;2.30;;;15.30;62.00;;;;;;5134408;27;20039;-71
2022/10/11 09:03:58;;;;;;;8.27;3.00;;;15.50;61.90;;;;;;5134144;27;20039;-71
2022/10/11 09:06:52;;;;;;;6.32;2.17;;;15.70;61.60;;;;;;5134663;27;20428;-71
2022/10/11 09:09:36;;;;;;;8.73;3.55;;;15.80;61.20;;;;;;5133840;27;20050;-71
2022/10/11 09:12:12;;;;;;;9.63;2.47;;;16.00;61.00;;;;;;5134099;27;20088;-71
2022/10/11 09:14:49;;;;;;;10.68;2.85;;;16.10;60.60;;;;;;5109639;27;20031;-71
2022/10/11 09:17:42;;;;;;;11.98;2.70;;;16.20;60.10;;;;;;5134280;27;20440;-71
2022/10/11 09:20:18;;;;;;;8.73;2.15;;;16.30;60.00;;;;;;5134004;27;20035;-71
2022/10/11 09:23:03;;;;;;;11.43;2.47;;;16.40;59.80;;;;;;5133506;27;20039;-71
2022/10/11 09:25:53;;;;;;;8.80;2.63;;;16.50;59.70;;;;;;5133868;27;20110;-71
2022/10/11 09:28:41;;;;;;;12.70;3.58;;;16.60;59.40;;;;;;5134126;27;20129;-71
2022/10/11 09:31:10;;;;;;;9.52;3.35;;;16.70;58.70;;;;;;5133896;27;20053;-71
2022/10/11 09:33:42;;;;;;;10.48;2.70;;;16.70;58.50;;;;;;5133491;27;20034;-71
2022/10/11 09:36:36;;;;;;;5.65;2.60;;;16.80;58.20;;;;;;5132738;27;20062;-71
2022/10/11 09:39:27;;;;;;;8.43;3.00;;;16.90;58.20;;;;;;5133661;27;20039;-71
2022/10/11 09:42:04;;;;;;;9.38;2.67;;;16.90;58.10;;;;;;5133509;27;20041;-71
2022/10/11 09:44:35;;;;;;;9.80;2.70;;;17.00;58.30;;;;;;5133113;27;20673;-71
2022/10/11 09:47:01;;;;;;;8.82;2.75;;;17.00;57.90;;;;;;5133690;27;20054;-71
2022/10/11 09:49:58;;;;;;;8.48;2.58;;;17.10;58.10;;;;;;5112888;28;20056;-71
2022/10/11 09:52:24;;;;;;;8.18;2.55;;;17.10;57.90;;;;;;5133435;27;20039;-72
2022/10/11 09:54:56;;;;;;;7.60;1.98;;;17.10;58.00;;;;;;5134528;27;20039;-71
2022/10/11 09:57:35;;;;;;;7.18;2.40;;;17.20;57.80;;;;;;5133194;27;20074;-71
2022/10/11 10:00:04;;;;;;;6.63;2.13;;;17.20;57.30;;;;;;5133365;27;20434;-71
2022/10/11 10:02:57;;;;;;;8.40;2.45;;;17.30;57.20;;;;;;5132683;27;20035;-71
2022/10/11 10:05:28;;;;;;;6.70;2.47;;;17.30;56.70;;;;;;5134785;27;20566;-71
2022/10/11 10:08:09;;;;;;;10.00;2.70;;;17.20;56.50;;;;;;5133018;27;20035;-71
2022/10/11 10:10:39;;;;;;;9.98;2.13;;;17.30;56.40;;;;;;5133224;27;20081;-71
2022/10/11 10:13:28;;;;;;;8.05;2.20;;;17.30;56.50;;;;;;5132988;27;20418;-71
2022/10/11 10:15:57;;;;;;;6.25;2.47;;;17.30;56.30;;;;;;5133128;27;20140;-71
2022/10/11 10:18:33;;;;;;;5.75;2.00;;;17.20;56.40;;;;;;5132604;27;20042;-71
2022/10/11 10:21:00;;;;;;;7.93;2.50;;;17.20;56.30;;;;;;5133083;27;20161;-71
2022/10/11 10:23:32;;;;;;;9.57;3.00;;;17.20;56.40;;;;;;5132468;27;20058;-71
2022/10/11 10:26:19;;;;;;;7.80;3.03;;;17.20;56.70;;;;;;5132897;27;20074;-71
2022/10/11 10:29:02;;;;;;;9.40;2.53;;;17.20;56.70;;;;;;5132949;27;20118;-71
2022/10/11 10:31:49;;;;;;;11.35;2.80;;;17.20;56.60;;;;;;5132496;27;20522;-71
2022/10/11 10:34:24;;;;;;;11.82;3.00;;;17.20;56.70;;;;;;5132553;27;20066;-71
2022/10/11 10:36:55;;;;;;;10.18;2.72;;;17.20;57.00;;;;;;5136691;27;20030;-71
2022/10/11 10:39:35;;;;;;;8.55;2.22;;;17.20;56.80;;;;;;5134755;27;20045;-71
2022/10/11 10:42:03;;;;;;;12.82;2.63;;;17.20;56.90;;;;;;5132825;27;20031;-71
2022/10/11 10:44:29;;;;;;;12.07;3.13;;;17.30;56.70;;;;;;5132431;27;20549;-71
2022/10/11 10:47:14;;;;;;;7.93;2.30;;;17.30;56.70;;;;;;5132417;27;20125;-71
2022/10/11 10:49:47;;;;;;;10.93;2.38;;;17.30;56.20;;;;;;5132190;27;20049;-71
2022/10/11 10:52:46;;;;;;;6.50;1.90;;;17.30;56.40;;;;;;5132462;27;20031;-71
2022/10/11 10:55:24;;;;;;;9.32;2.22;;;17.40;56.40;;;;;;5146219;27;20041;-71
2022/10/11 10:58:14;;;;;;;8.18;2.17;;;17.40;56.40;;;;;;5131521;27;20026;-71
2022/10/11 11:00:47;;;;;;;8.88;2.67;;;17.50;56.50;;;;;;5130744;27;20041;-72
2022/10/11 11:03:23;;;;;;;11.20;2.33;;;17.50;56.20;;;;;;5133097;27;20042;-71
2022/10/11 11:06:04;;;;;;;11.10;3.00;;;17.50;55.80;;;;;;5125431;27;20035;-71
2022/10/11 11:08:48;;;;;;;9.82;2.80;;;17.50;55.20;;;;;;5132475;27;20430;-71
2022/10/11 11:11:40;;;;;;;9.43;2.20;;;17.60;55.50;;;;;;5132076;28;20092;-71
2022/10/11 11:14:17;;;;;;;9.30;2.53;;;17.60;55.90;;;;;;5089621;27;20406;-71
2022/10/11 11:17:18;;;;;;;9.52;2.60;;;17.60;55.60;;;;;;5132228;28;20043;-71
2022/10/11 11:19:53;;;;;;;11.07;2.53;;;17.60;55.50;;;;;;5132375;28;20423;-71
2022/10/11 11:22:40;;;;;;;8.43;1.52;;;17.60;55.20;;;;;;5131887;27;20050;-70
2022/10/11 11:25:28;;;;;;;9.00;2.13;;;17.60;54.80;;;;;;5131858;28;20083;-70
2022/10/11 11:28:08;;;;;;;6.72;1.85;;;17.60;55.10;;;;;;5132208;28;20123;-72
2022/10/11 11:30:55;;;;;;;6.15;1.67;;;17.60;54.90;;;;;;5132028;27;20498;-72
2022/10/11 11:33:49;;;;;;;10.20;1.52;;;17.60;55.00;;;;;;5131966;28;20035;-72
2022/10/11 11:36:27;;;;;;;8.80;2.15;;;17.60;54.70;;;;;;5111673;28;20047;-72
2022/10/11 11:38:55;;;;;;;7.80;1.90;;;17.60;54.70;;;;;;5112623;27;20505;-72
2022/10/11 11:41:43;;;;;;;9.18;1.75;;;17.60;54.80;;;;;;5131929;27;20486;-72
2022/10/11 11:44:26;;;;;;;13.73;1.95;;;17.60;54.60;;;;;;5148995;27;20506;-72
2022/10/11 11:47:01;;;;;;;9.32;1.90;;;17.60;54.70;;;;;;5132061;28;20050;-72
2022/10/11 11:49:35;;;;;;;12.35;2.22;;;17.70;54.30;;;;;;5130672;27;20067;-72
2022/10/11 11:52:04;;;;;;;7.50;1.63;;;17.70;54.60;;;;;;5131404;28;20047;-72
2022/10/11 11:55:12;;;;;;;8.65;2.33;;;17.70;54.60;;;;;;5133807;27;20083;-71
2022/10/11 11:58:09;;;;;;;9.88;1.65;;;17.80;54.30;;;;;;5136505;27;20043;-72
2022/10/11 12:01:16;;;;;;;7.35;1.75;;;17.80;53.70;;;;;;5130300;27;20054;-73
2022/10/11 12:03:48;;;;;;;7.00;2.05;;;17.90;54.10;;;;;;5151121;27;20042;-72
2022/10/11 12:06:14;;;;;;;9.48;2.03;;;17.90;53.70;;;;;;5151137;27;20098;-66
2022/10/11 12:09:07;;;;;;;7.18;2.05;;;17.90;53.80;;;;;;5150158;27;20490;-72
2022/10/11 12:11:36;;;;;;;6.35;2.03;;;17.90;52.80;;;;;;5135605;27;20102;-68
2022/10/11 12:14:26;;;;;;;7.50;1.65;;;17.90;52.80;;;;;;5152272;27;20086;-67
2022/10/11 12:17:12;;;;;;;7.43;1.40;;;18.00;52.30;;;;;;5151845;27;20043;-67
2022/10/11 12:19:41;;;;;;;9.82;1.50;;;18.00;53.00;;;;;;5151919;27;20145;-67
2022/10/11 12:22:59;;;;;;;7.60;1.60;;;18.00;53.10;;;;;;5150794;27;20081;-67
2022/10/11 12:25:34;;;;;;;6.35;1.50;;;18.00;52.30;;;;;;5151498;27;20038;-67
2022/10/11 12:28:20;;;;;;;9.77;2.47;;;17.90;51.70;;;;;;5151415;27;20041;-67
2022/10/11 12:30:46;;;;;;;8.75;2.63;;;17.90;51.40;;;;;;5150449;27;20070;-66
2022/10/11 12:33:21;;;;;;;8.70;1.83;;;17.80;51.20;;;;;;5150765;27;20123;-67
2022/10/11 12:35:57;;;;;;;6.55;1.50;;;17.80;51.00;;;;;;5147182;27;20126;-66
2022/10/11 12:38:29;;;;;;;7.43;1.60;;;17.70;51.20;;;;;;5135708;27;20042;-67
2022/10/11 12:41:07;;;;;;;6.40;1.50;;;17.70;51.60;;;;;;5134322;27;20053;-67
2022/10/11 12:44:06;;;;;;;9.13;1.92;;;17.60;52.00;;;;;;5117561;27;20099;-67
2022/10/11 12:46:39;;;;;;;12.15;2.55;;;17.60;52.30;;;;;;5134520;27;20043;-67
2022/10/11 12:49:08;;;;;;;6.50;1.65;;;17.50;52.20;;;;;;5134938;27;20066;-67
2022/10/11 12:51:53;;;;;;;5.05;1.40;;;17.50;52.60;;;;;;5134499;27;20054;-67
2022/10/11 12:54:48;;;;;;;7.55;1.50;;;17.50;51.80;;;;;;5114209;28;20039;-68
2022/10/11 12:57:34;;;;;;;5.65;1.98;;;17.40;51.40;;;;;;5132260;27;20050;-67
2022/10/11 13:00:22;;;;;;;7.75;1.65;;;17.30;51.30;;;;;;5134858;27;20049;-67
2022/10/11 13:02:48;;;;;;;7.72;1.73;;;17.30;51.60;;;;;;5123254;27;20047;-67
2022/10/11 13:05:42;;;;;;;6.47;1.23;;;17.20;52.10;;;;;;5134550;27;20130;-68
2022/10/11 13:08:14;;;;;;;5.90;1.67;;;17.10;52.00;;;;;;5114248;28;20078;-67
2022/10/11 13:10:45;;;;;;;9.73;1.52;;;17.10;52.30;;;;;;5132886;27;20054;-67
2022/10/11 13:13:21;;;;;;;5.30;1.30;;;17.10;52.50;;;;;;5134351;27;20092;-67
2022/10/11 13:15:48;;;;;;;7.28;1.42;;;17.00;52.80;;;;;;5117280;27;20035;-67
2022/10/11 13:18:16;;;;;;;5.95;1.55;;;17.00;52.60;;;;;;5134276;27;20035;-67